Beatrice, Nebraska
Current Conditions -  °F | °C
As of 4:15 AM on Sunday 25 Jan 2015 (Local Time) from KBIE Reporting Station
Overcast Overcast  
Wind Chill: 26°   Ceiling: 2300
Heat Index: 38°   Visibility: 10mi
Dew Point: 33°   Wind: 32mph
Humidity: 81%   Direction: 330°NNW
Pressure: 29.75"   Gusts: 38mph
Location:  40.27°N, 96.75°W
Report Text: KBIE 251015Z AUTO 33028G33KT 10SM OVC023 04/01 A2975 RMK AO2 T00350005
Loading
Personal Weather Stations






























Interactive Weather Map New forecast layout! Learn more

10-Day Weather Forecast

Advertisements
Track Severe Weather on mobile